createdAt,value
2016-08-08T00:00:00.291Z,20.8
2016-08-08T00:00:10.287Z,20.8
2016-08-08T00:00:20.288Z,20.8
2016-08-08T00:00:30.279Z,20.7
2016-08-08T00:00:40.274Z,20.8
2016-08-08T00:00:50.270Z,20.8
2016-08-08T00:01:00.265Z,20.9
2016-08-08T00:01:10.260Z,20.8
2016-08-08T00:01:20.256Z,20.9
2016-08-08T00:01:30.252Z,20.8
2016-08-08T00:01:40.246Z,20.8
2016-08-08T00:01:50.244Z,20.8
2016-08-08T00:02:00.239Z,20.8
2016-08-08T00:02:10.234Z,20.9
2016-08-08T00:02:20.230Z,20.8
2016-08-08T00:02:30.227Z,20.8
2016-08-08T00:02:40.221Z,20.8
2016-08-08T00:02:50.217Z,20.8
2016-08-08T00:03:00.213Z,20.8
2016-08-08T00:03:10.207Z,20.8
2016-08-08T00:03:20.212Z,20.8
2016-08-08T00:03:30.198Z,20.8
2016-08-08T00:03:40.194Z,20.8
2016-08-08T00:03:50.190Z,20.8
2016-08-08T00:04:00.185Z,20.8
2016-08-08T00:04:10.181Z,20.8
2016-08-08T00:04:20.176Z,20.8
2016-08-08T00:04:30.172Z,20.8
2016-08-08T00:04:40.167Z,20.8
2016-08-08T00:04:50.163Z,20.8
2016-08-08T00:05:00.158Z,20.8
2016-08-08T00:05:10.154Z,20.8
2016-08-08T00:05:20.147Z,20.8
2016-08-08T00:05:30.145Z,20.8
2016-08-08T00:05:40.140Z,20.8
2016-08-08T00:05:50.136Z,20.8
2016-08-08T00:06:00.132Z,20.8
2016-08-08T00:06:10.126Z,20.8
2016-08-08T00:06:20.122Z,20.8
2016-08-08T00:06:30.119Z,20.8
2016-08-08T00:06:40.117Z,20.8
2016-08-08T00:06:50.113Z,20.8
2016-08-08T00:07:00.105Z,20.8
2016-08-08T00:07:10.100Z,20.8
2016-08-08T00:07:20.097Z,20.8
2016-08-08T00:07:30.091Z,20.8
2016-08-08T00:07:40.087Z,20.8
2016-08-08T00:07:50.083Z,20.8
2016-08-08T00:08:00.078Z,20.8
2016-08-08T00:08:10.086Z,20.8
2016-08-08T00:08:20.070Z,20.8
2016-08-08T00:08:30.067Z,20.8
2016-08-08T00:08:40.061Z,20.8
2016-08-08T00:08:50.057Z,20.8
2016-08-08T00:09:00.052Z,20.9
2016-08-08T00:09:10.047Z,20.8
2016-08-08T00:09:20.055Z,20.8
2016-08-08T00:09:30.039Z,20.8
2016-08-08T00:09:40.034Z,20.8
2016-08-08T00:09:50.028Z,20.8
2016-08-08T00:10:00.025Z,20.9
2016-08-08T00:10:10.021Z,20.8
2016-08-08T00:10:20.016Z,20.8
2016-08-08T00:10:30.012Z,20.8
2016-08-08T00:10:40.006Z,20.8
2016-08-08T00:10:50.003Z,20.8
2016-08-08T00:10:59.998Z,20.8
2016-08-08T00:11:09.993Z,20.8
2016-08-08T00:11:19.989Z,20.8
2016-08-08T00:11:29.985Z,20.8
2016-08-08T00:11:39.981Z,20.8
2016-08-08T00:11:49.977Z,20.8
2016-08-08T00:11:59.972Z,20.8
2016-08-08T00:12:09.967Z,20.8
2016-08-08T00:12:19.962Z,20.8
2016-08-08T00:12:29.958Z,20.8
2016-08-08T00:12:39.956Z,20.8
2016-08-08T00:12:49.949Z,20.8
2016-08-08T00:12:59.945Z,20.8
2016-08-08T00:13:09.942Z,20.8
2016-08-08T00:13:19.936Z,20.8
2016-08-08T00:13:29.932Z,20.8
2016-08-08T00:13:39.926Z,20.8
2016-08-08T00:13:49.922Z,20.8
2016-08-08T00:13:59.919Z,20.9
2016-08-08T00:14:09.915Z,20.9
2016-08-08T00:14:19.911Z,20.9
2016-08-08T00:14:29.906Z,20.9
2016-08-08T00:14:39.901Z,20.8
2016-08-08T00:14:49.896Z,20.8
2016-08-08T00:14:59.891Z,20.8
2016-08-08T00:15:09.886Z,20.8
2016-08-08T00:15:19.883Z,20.8
2016-08-08T00:15:29.882Z,20.8
2016-08-08T00:15:39.874Z,20.8
2016-08-08T00:15:49.870Z,20.8
2016-08-08T00:15:59.864Z,20.8
2016-08-08T00:16:09.861Z,20.8
2016-08-08T00:16:19.858Z,20.8
2016-08-08T00:16:29.852Z,20.8
2016-08-08T00:16:39.847Z,20.8
2016-08-08T00:16:49.842Z,20.8
2016-08-08T00:16:59.838Z,20.8
2016-08-08T00:17:09.834Z,20.8
2016-08-08T00:17:19.829Z,20.7
2016-08-08T00:17:29.825Z,20.8
2016-08-08T00:17:39.820Z,20.8
2016-08-08T00:17:49.816Z,20.8
2016-08-08T00:17:59.812Z,20.8
2016-08-08T00:18:09.806Z,20.8
2016-08-08T00:18:19.802Z,20.8
2016-08-08T00:18:29.799Z,20.8
2016-08-08T00:18:39.794Z,20.8
2016-08-08T00:18:49.788Z,20.8
2016-08-08T00:18:59.784Z,20.8
2016-08-08T00:19:09.781Z,20.8
2016-08-08T00:19:19.776Z,20.8
2016-08-08T00:19:29.771Z,20.8
2016-08-08T00:19:39.767Z,20.8
2016-08-08T00:19:49.763Z,20.8
2016-08-08T00:19:59.760Z,20.8
2016-08-08T00:20:09.754Z,20.8
2016-08-08T00:20:19.751Z,20.8
2016-08-08T00:20:29.745Z,20.8
2016-08-08T00:20:39.741Z,20.8
2016-08-08T00:20:49.736Z,20.7
2016-08-08T00:20:59.732Z,20.8
2016-08-08T00:21:09.729Z,20.8
2016-08-08T00:21:19.722Z,20.8
2016-08-08T00:21:29.718Z,20.8
2016-08-08T00:21:39.714Z,20.8
2016-08-08T00:21:49.709Z,20.8
2016-08-08T00:21:59.704Z,20.8
2016-08-08T00:22:09.700Z,20.9
2016-08-08T00:22:19.696Z,20.8
2016-08-08T00:22:29.692Z,20.8
2016-08-08T00:22:39.687Z,20.8
2016-08-08T00:22:49.681Z,20.8
2016-08-08T00:22:59.677Z,20.8
2016-08-08T00:23:09.673Z,20.8
2016-08-08T00:23:19.668Z,20.8
2016-08-08T00:23:29.664Z,20.8
2016-08-08T00:23:39.667Z,20.8
2016-08-08T00:23:49.656Z,20.8
2016-08-08T00:23:59.651Z,20.8
2016-08-08T00:24:09.647Z,20.8
2016-08-08T00:24:19.640Z,20.8
2016-08-08T00:24:29.637Z,20.8
2016-08-08T00:24:39.633Z,20.9
2016-08-08T00:24:49.630Z,20.8
2016-08-08T00:24:59.625Z,20.8
2016-08-08T00:25:09.621Z,20.8
2016-08-08T00:25:19.616Z,20.9
2016-08-08T00:25:29.612Z,20.7
2016-08-08T00:25:39.606Z,20.8
2016-08-08T00:25:49.602Z,20.8
2016-08-08T00:25:59.598Z,20.8
2016-08-08T00:26:09.594Z,20.8
2016-08-08T00:26:19.589Z,20.9
2016-08-08T00:26:29.584Z,20.8
2016-08-08T00:26:39.581Z,20.8
2016-08-08T00:26:49.577Z,20.8
2016-08-08T00:26:59.572Z,20.8
2016-08-08T00:27:09.569Z,20.8
2016-08-08T00:27:19.562Z,20.8
2016-08-08T00:27:29.558Z,20.8
2016-08-08T00:27:39.554Z,20.8
2016-08-08T00:27:49.549Z,20.8
2016-08-08T00:27:59.544Z,20.8
2016-08-08T00:28:09.540Z,20.8
2016-08-08T00:28:19.534Z,20.8
2016-08-08T00:28:29.532Z,20.8
2016-08-08T00:28:39.526Z,20.8
2016-08-08T00:28:49.521Z,20.8
2016-08-08T00:28:59.518Z,20.8
2016-08-08T00:29:09.514Z,20.8
2016-08-08T00:29:19.508Z,20.8
2016-08-08T00:29:29.504Z,20.8
2016-08-08T00:29:39.498Z,20.8
2016-08-08T00:29:49.494Z,20.8
2016-08-08T00:29:59.490Z,20.8
2016-08-08T00:30:09.487Z,20.8
2016-08-08T00:30:19.482Z,20.8
2016-08-08T00:30:29.477Z,20.8
2016-08-08T00:30:39.473Z,20.8
2016-08-08T00:30:49.469Z,20.7
2016-08-08T00:30:59.464Z,20.8
2016-08-08T00:31:09.460Z,20.8
2016-08-08T00:31:19.455Z,20.8
2016-08-08T00:31:29.450Z,20.8
2016-08-08T00:31:39.447Z,20.8
2016-08-08T00:31:49.443Z,20.8
2016-08-08T00:31:59.439Z,20.7
2016-08-08T00:32:09.434Z,20.8
2016-08-08T00:32:19.429Z,20.8
2016-08-08T00:32:29.424Z,20.8
2016-08-08T00:32:39.420Z,20.8
2016-08-08T00:32:49.416Z,20.8
2016-08-08T00:32:59.411Z,20.8
2016-08-08T00:33:09.406Z,20.8
2016-08-08T00:33:19.402Z,20.8
2016-08-08T00:33:29.397Z,20.7
2016-08-08T00:33:39.392Z,20.8
2016-08-08T00:33:49.389Z,20.7
2016-08-08T00:33:59.384Z,20.7
2016-08-08T00:34:09.384Z,20.7
2016-08-08T00:34:19.375Z,20.7
2016-08-08T00:34:29.376Z,20.7
2016-08-08T00:34:39.366Z,20.7
2016-08-08T00:34:49.363Z,20.7
2016-08-08T00:34:59.356Z,20.7
2016-08-08T00:35:09.353Z,20.7
2016-08-08T00:35:19.349Z,20.7
2016-08-08T00:35:29.343Z,20.7
2016-08-08T00:35:39.340Z,20.7
2016-08-08T00:35:49.336Z,20.7
2016-08-08T00:35:59.330Z,20.7
2016-08-08T00:36:09.327Z,20.7
2016-08-08T00:36:19.320Z,20.7
2016-08-08T00:36:29.317Z,20.7
2016-08-08T00:36:39.313Z,20.7
2016-08-08T00:36:49.313Z,20.7
2016-08-08T00:36:59.303Z,20.7
2016-08-08T00:37:09.301Z,20.7
2016-08-08T00:37:19.295Z,20.7
2016-08-08T00:37:29.292Z,20.7
2016-08-08T00:37:39.291Z,20.7
2016-08-08T00:37:49.281Z,20.6
2016-08-08T00:37:59.278Z,20.7
2016-08-08T00:38:09.273Z,20.7
2016-08-08T00:38:19.269Z,20.7
2016-08-08T00:38:29.265Z,20.6
2016-08-08T00:38:39.259Z,20.7
2016-08-08T00:38:49.255Z,20.6
2016-08-08T00:38:59.249Z,20.6
2016-08-08T00:39:09.248Z,20.7
2016-08-08T00:39:19.245Z,20.6
2016-08-08T00:39:29.236Z,20.6
2016-08-08T00:39:39.231Z,20.6
2016-08-08T00:39:49.228Z,20.6
2016-08-08T00:39:59.222Z,20.7
2016-08-08T00:40:09.219Z,20.6
2016-08-08T00:40:19.212Z,20.6
2016-08-08T00:40:29.210Z,20.6
2016-08-08T00:40:39.207Z,20.7
2016-08-08T00:40:49.200Z,20.6
2016-08-08T00:40:59.195Z,20.6
2016-08-08T00:41:09.191Z,20.6
2016-08-08T00:41:19.188Z,20.6
2016-08-08T00:41:29.183Z,20.6
2016-08-08T00:41:39.179Z,20.6
2016-08-08T00:41:49.174Z,20.6
2016-08-08T00:41:59.170Z,20.6
2016-08-08T00:42:09.165Z,20.6
2016-08-08T00:42:19.161Z,20.6
2016-08-08T00:42:29.158Z,20.6
2016-08-08T00:42:39.152Z,20.6
2016-08-08T00:42:49.148Z,20.7
2016-08-08T00:42:59.143Z,20.6
2016-08-08T00:43:09.138Z,20.6
2016-08-08T00:43:19.135Z,20.6
2016-08-08T00:43:29.131Z,20.6
2016-08-08T00:43:39.125Z,20.6
2016-08-08T00:43:49.122Z,20.6
2016-08-08T00:43:59.117Z,20.7
2016-08-08T00:44:09.113Z,20.5
2016-08-08T00:44:19.108Z,20.6
2016-08-08T00:44:29.103Z,20.5
2016-08-08T00:44:39.097Z,20.6
2016-08-08T00:44:49.095Z,20.6
2016-08-08T00:44:59.091Z,20.6
2016-08-08T00:45:09.085Z,20.5
2016-08-08T00:45:19.080Z,20.5
2016-08-08T00:45:29.077Z,20.7
2016-08-08T00:45:39.071Z,20.7
2016-08-08T00:45:49.067Z,20.6
2016-08-08T00:45:59.063Z,20.6
2016-08-08T00:46:09.057Z,20.6
2016-08-08T00:46:19.052Z,20.5
2016-08-08T00:46:29.051Z,20.5
2016-08-08T00:46:39.049Z,20.5
2016-08-08T00:46:49.040Z,20.5
2016-08-08T00:46:59.035Z,20.6
2016-08-08T00:47:09.032Z,20.5
2016-08-08T00:47:19.028Z,20.6
2016-08-08T00:47:29.022Z,20.6
2016-08-08T00:47:39.024Z,20.5
2016-08-08T00:47:49.013Z,20.5
2016-08-08T00:47:59.013Z,20.5
2016-08-08T00:48:09.005Z,20.5
2016-08-08T00:48:19.000Z,20.5
2016-08-08T00:48:28.996Z,20.5
2016-08-08T00:48:39.001Z,20.5
2016-08-08T00:48:48.987Z,20.5
2016-08-08T00:48:58.983Z,20.5
2016-08-08T00:49:08.978Z,20.5
2016-08-08T00:49:18.973Z,20.6
2016-08-08T00:49:28.970Z,20.5
2016-08-08T00:49:38.964Z,20.5
2016-08-08T00:49:48.960Z,20.5
2016-08-08T00:49:58.956Z,20.5
2016-08-08T00:50:08.951Z,20.5
2016-08-08T00:50:18.947Z,20.6
2016-08-08T00:50:28.943Z,20.5
2016-08-08T00:50:38.938Z,20.5
2016-08-08T00:50:48.935Z,20.5
2016-08-08T00:50:58.930Z,20.5
2016-08-08T00:51:08.924Z,20.5
2016-08-08T00:51:18.920Z,20.5
2016-08-08T00:51:28.915Z,20.5
2016-08-08T00:51:38.911Z,20.5
2016-08-08T00:51:48.908Z,20.5
2016-08-08T00:51:58.902Z,20.5
2016-08-08T00:52:08.897Z,20.5
2016-08-08T00:52:18.894Z,20.5
2016-08-08T00:52:28.887Z,20.5
2016-08-08T00:52:38.885Z,20.5
2016-08-08T00:52:48.879Z,20.5
2016-08-08T00:52:58.875Z,20.5
2016-08-08T00:53:08.871Z,20.5
2016-08-08T00:53:18.867Z,20.5
2016-08-08T00:53:28.862Z,20.5
2016-08-08T00:53:38.855Z,20.5
2016-08-08T00:53:48.852Z,20.6
2016-08-08T00:53:58.850Z,20.5
2016-08-08T00:54:08.843Z,20.5
2016-08-08T00:54:18.840Z,20.5
2016-08-08T00:54:28.836Z,20.6
2016-08-08T00:54:38.835Z,20.6
2016-08-08T00:54:48.827Z,20.6
2016-08-08T00:54:58.821Z,20.6
2016-08-08T00:55:08.830Z,20.5
2016-08-08T00:55:18.815Z,20.5
2016-08-08T00:55:28.807Z,20.5
2016-08-08T00:55:38.803Z,20.5
2016-08-08T00:55:48.801Z,20.5
2016-08-08T00:55:58.794Z,20.6
2016-08-08T00:56:08.791Z,20.5
2016-08-08T00:56:18.786Z,20.5
2016-08-08T00:56:28.781Z,20.5
2016-08-08T00:56:38.779Z,20.5
2016-08-08T00:56:48.773Z,20.5
2016-08-08T00:56:58.769Z,20.5
2016-08-08T00:57:08.764Z,20.5
2016-08-08T00:57:18.758Z,20.5
2016-08-08T00:57:28.753Z,20.5
2016-08-08T00:57:38.750Z,20.5
2016-08-08T00:57:48.746Z,20.5
2016-08-08T00:57:58.742Z,20.5
2016-08-08T00:58:08.736Z,20.5
2016-08-08T00:58:18.732Z,20.5
2016-08-08T00:58:28.727Z,20.5
2016-08-08T00:58:38.722Z,20.6
2016-08-08T00:58:48.717Z,20.5
2016-08-08T00:58:58.713Z,20.6
2016-08-08T00:59:08.710Z,20.5
2016-08-08T00:59:18.705Z,20.5
2016-08-08T00:59:28.699Z,20.5
2016-08-08T00:59:38.695Z,20.5
2016-08-08T00:59:48.692Z,20.5
2016-08-08T00:59:58.687Z,20.5
2016-08-08T01:00:08.682Z,20.5
2016-08-08T01:00:18.678Z,20.5
2016-08-08T01:00:28.675Z,20.6
2016-08-08T01:00:38.669Z,20.5
2016-08-08T01:00:48.664Z,20.5
2016-08-08T01:00:58.660Z,20.5
2016-08-08T01:01:08.658Z,20.5
2016-08-08T01:01:18.651Z,20.5
2016-08-08T01:01:28.647Z,20.5
2016-08-08T01:01:38.642Z,20.5
2016-08-08T01:01:48.637Z,20.5
2016-08-08T01:01:58.634Z,20.5
2016-08-08T01:02:08.628Z,20.5
2016-08-08T01:02:18.624Z,20.5
2016-08-08T01:02:28.619Z,20.5
2016-08-08T01:02:38.615Z,20.5
2016-08-08T01:02:48.612Z,20.5
2016-08-08T01:02:58.606Z,20.5
2016-08-08T01:03:08.602Z,20.5
2016-08-08T01:03:18.596Z,20.5
2016-08-08T01:03:28.592Z,20.5
2016-08-08T01:03:38.588Z,20.5
2016-08-08T01:03:48.584Z,20.5
2016-08-08T01:03:58.578Z,20.5
2016-08-08T01:04:08.574Z,20.5
2016-08-08T01:04:18.571Z,20.5
2016-08-08T01:04:28.565Z,20.5
2016-08-08T01:04:38.561Z,20.5
2016-08-08T01:04:48.556Z,20.5
2016-08-08T01:04:58.551Z,20.5
2016-08-08T01:05:08.548Z,20.5
2016-08-08T01:05:18.544Z,20.5
2016-08-08T01:05:28.539Z,20.5
2016-08-08T01:05:38.534Z,20.4
2016-08-08T01:05:48.530Z,20.4
2016-08-08T01:05:58.526Z,20.5
2016-08-08T01:06:08.522Z,20.4
2016-08-08T01:06:18.517Z,20.5
2016-08-08T01:06:28.512Z,20.5
2016-08-08T01:06:38.522Z,20.3
2016-08-08T01:06:48.504Z,20.4
2016-08-08T01:06:58.497Z,20.5
2016-08-08T01:07:08.494Z,20.4
2016-08-08T01:07:18.491Z,20.5
2016-08-08T01:07:28.486Z,20.5
2016-08-08T01:07:38.482Z,20.4
2016-08-08T01:07:48.475Z,20.5
2016-08-08T01:07:58.472Z,20.5
2016-08-08T01:08:08.468Z,20.4
2016-08-08T01:08:18.462Z,20.4
2016-08-08T01:08:28.458Z,20.5
2016-08-08T01:08:38.454Z,20.5
2016-08-08T01:08:48.449Z,20.4
2016-08-08T01:08:58.445Z,20.4
2016-08-08T01:09:08.441Z,20.4
2016-08-08T01:09:18.435Z,20.5
2016-08-08T01:09:28.431Z,20.5
2016-08-08T01:09:38.427Z,20.4
2016-08-08T01:09:48.422Z,20.3
2016-08-08T01:09:58.417Z,20.4
2016-08-08T01:10:08.413Z,20.5
2016-08-08T01:10:18.408Z,20.4
2016-08-08T01:10:28.405Z,20.4
2016-08-08T01:10:38.400Z,20.4
2016-08-08T01:10:48.395Z,20.4
2016-08-08T01:10:58.391Z,20.4
2016-08-08T01:11:08.387Z,20.4
2016-08-08T01:11:18.383Z,20.4
2016-08-08T01:11:28.377Z,20.4
2016-08-08T01:11:38.373Z,20.4
2016-08-08T01:11:48.370Z,20.3
2016-08-08T01:11:58.365Z,20.4
2016-08-08T01:12:08.361Z,20.4
2016-08-08T01:12:18.354Z,20.4
2016-08-08T01:12:28.352Z,20.4
2016-08-08T01:12:38.351Z,20.4
2016-08-08T01:12:48.343Z,20.4
2016-08-08T01:12:58.338Z,20.4
2016-08-08T01:13:08.335Z,20.4
2016-08-08T01:13:18.328Z,20.4
2016-08-08T01:13:28.325Z,20.5
2016-08-08T01:13:38.320Z,20.4
2016-08-08T01:13:48.314Z,20.3
2016-08-08T01:13:58.311Z,20.4
2016-08-08T01:14:08.305Z,20.5
2016-08-08T01:14:18.301Z,20.5
2016-08-08T01:14:28.297Z,20.4
2016-08-08T01:14:38.290Z,20.5
2016-08-08T01:14:48.287Z,20.5
2016-08-08T01:14:58.283Z,20.4
2016-08-08T01:15:08.278Z,20.4
2016-08-08T01:15:18.273Z,20.4
2016-08-08T01:15:28.270Z,20.4
2016-08-08T01:15:38.266Z,20.4
2016-08-08T01:15:48.261Z,20.5
2016-08-08T01:15:58.257Z,20.4
2016-08-08T01:16:08.252Z,20.4
2016-08-08T01:16:18.247Z,20.3
2016-08-08T01:16:28.243Z,20.5
2016-08-08T01:16:38.239Z,20.4
2016-08-08T01:16:48.234Z,20.4
2016-08-08T01:16:58.230Z,20.4
2016-08-08T01:17:08.226Z,20.4
2016-08-08T01:17:18.221Z,20.4
2016-08-08T01:17:28.216Z,20.4
2016-08-08T01:17:38.212Z,20.4
2016-08-08T01:17:48.207Z,20.3
2016-08-08T01:17:58.204Z,20.4
2016-08-08T01:18:08.199Z,20.3
2016-08-08T01:18:18.194Z,20.4
2016-08-08T01:18:28.190Z,20.4
2016-08-08T01:18:38.186Z,20.3
2016-08-08T01:18:48.192Z,20.4
2016-08-08T01:18:58.174Z,20.4
2016-08-08T01:19:08.171Z,20.4
2016-08-08T01:19:18.168Z,20.4
2016-08-08T01:19:28.162Z,20.4
2016-08-08T01:19:38.161Z,20.4
2016-08-08T01:19:48.154Z,20.4
2016-08-08T01:19:58.149Z,20.4
2016-08-08T01:20:08.145Z,20.4
2016-08-08T01:20:18.141Z,20.4
2016-08-08T01:20:28.135Z,20.3
2016-08-08T01:20:38.133Z,20.4
2016-08-08T01:20:48.127Z,20.4
2016-08-08T01:20:58.121Z,20.3
2016-08-08T01:21:08.119Z,20.4
2016-08-08T01:21:18.113Z,20.5
2016-08-08T01:21:28.108Z,20.3
2016-08-08T01:21:38.103Z,20.4
2016-08-08T01:21:48.100Z,20.4
2016-08-08T01:21:58.096Z,20.4
2016-08-08T01:22:08.091Z,20.4
2016-08-08T01:22:18.087Z,20.4
2016-08-08T01:22:28.086Z,20.4
2016-08-08T01:22:38.077Z,20.4
2016-08-08T01:22:48.073Z,20.3
2016-08-08T01:22:58.068Z,20.4
2016-08-08T01:23:08.071Z,20.4
2016-08-08T01:23:18.060Z,20.4
2016-08-08T01:23:28.056Z,20.4
2016-08-08T01:23:38.053Z,20.4
2016-08-08T01:23:48.047Z,20.4
2016-08-08T01:23:58.043Z,20.4
2016-08-08T01:24:08.039Z,20.3
2016-08-08T01:24:18.033Z,20.4
2016-08-08T01:24:28.028Z,20.4
2016-08-08T01:24:38.024Z,20.4
2016-08-08T01:24:48.019Z,20.4
2016-08-08T01:24:58.014Z,20.4
2016-08-08T01:25:08.011Z,20.4
2016-08-08T01:25:18.005Z,20.5
2016-08-08T01:25:28.002Z,20.4
2016-08-08T01:25:37.996Z,20.4
2016-08-08T01:25:47.992Z,20.5
2016-08-08T01:25:57.988Z,20.4
2016-08-08T01:26:07.983Z,20.4
2016-08-08T01:26:17.979Z,20.4
2016-08-08T01:26:27.973Z,20.4
2016-08-08T01:26:37.970Z,20.4
2016-08-08T01:26:47.967Z,20.4
2016-08-08T01:26:57.961Z,20.4
2016-08-08T01:27:07.959Z,20.4
2016-08-08T01:27:17.952Z,20.4
2016-08-08T01:27:27.947Z,20.4
2016-08-08T01:27:37.943Z,20.4
2016-08-08T01:27:47.940Z,20.4
2016-08-08T01:27:57.934Z,20.4
2016-08-08T01:28:07.930Z,20.5
2016-08-08T01:28:17.925Z,20.3
2016-08-08T01:28:27.922Z,20.4
2016-08-08T01:28:37.916Z,20.4
2016-08-08T01:28:47.911Z,20.3
2016-08-08T01:28:57.908Z,20.4
2016-08-08T01:29:07.903Z,20.4
2016-08-08T01:29:17.898Z,20.4
2016-08-08T01:29:27.895Z,20.3
2016-08-08T01:29:37.889Z,20.4
2016-08-08T01:29:47.886Z,20.4
2016-08-08T01:29:57.882Z,20.4
2016-08-08T01:30:07.876Z,20.3
2016-08-08T01:30:17.871Z,20.4
2016-08-08T01:30:27.869Z,20.4
2016-08-08T01:30:37.861Z,20.4
2016-08-08T01:30:47.858Z,20.4
2016-08-08T01:30:57.853Z,20.4
2016-08-08T01:31:07.849Z,20.3
2016-08-08T01:31:17.850Z,20.4
2016-08-08T01:31:27.840Z,20.4
2016-08-08T01:31:37.835Z,20.4
2016-08-08T01:31:47.830Z,20.4
2016-08-08T01:31:57.826Z,20.4
2016-08-08T01:32:07.822Z,20.5
2016-08-08T01:32:17.817Z,20.3
2016-08-08T01:32:27.813Z,20.4
2016-08-08T01:32:37.808Z,20.4
2016-08-08T01:32:47.804Z,20.4
2016-08-08T01:32:57.800Z,20.4
2016-08-08T01:33:07.797Z,20.4
2016-08-08T01:33:17.790Z,20.5
2016-08-08T01:33:27.786Z,20.5
2016-08-08T01:33:37.782Z,20.5
2016-08-08T01:33:47.777Z,20.4
2016-08-08T01:33:57.774Z,20.4
2016-08-08T01:34:07.767Z,20.5
2016-08-08T01:34:17.764Z,20.4
2016-08-08T01:34:27.763Z,20.5
2016-08-08T01:34:37.754Z,20.5
2016-08-08T01:34:47.750Z,20.5
2016-08-08T01:34:57.746Z,20.5
2016-08-08T01:35:07.741Z,20.5
2016-08-08T01:35:17.737Z,20.5
2016-08-08T01:35:27.732Z,20.4
2016-08-08T01:35:37.728Z,20.5
2016-08-08T01:35:47.728Z,20.4
2016-08-08T01:35:57.720Z,20.4
2016-08-08T01:36:07.715Z,20.4
2016-08-08T01:36:17.712Z,20.5
2016-08-08T01:36:27.706Z,20.5
2016-08-08T01:36:37.701Z,20.5
2016-08-08T01:36:47.696Z,20.5
2016-08-08T01:36:57.692Z,20.5
2016-08-08T01:37:07.688Z,20.4
2016-08-08T01:37:17.681Z,20.4
2016-08-08T01:37:27.679Z,20.4
2016-08-08T01:37:37.674Z,20.4
2016-08-08T01:37:47.669Z,20.5
2016-08-08T01:37:57.665Z,20.4
2016-08-08T01:38:07.660Z,20.4
2016-08-08T01:38:17.656Z,20.4
2016-08-08T01:38:27.652Z,20.4
2016-08-08T01:38:37.648Z,20.4
2016-08-08T01:38:47.643Z,20.4
2016-08-08T01:38:57.644Z,20.4
2016-08-08T01:39:07.636Z,20.4
2016-08-08T01:39:17.630Z,20.4
2016-08-08T01:39:27.624Z,20.4
2016-08-08T01:39:37.620Z,20.4
2016-08-08T01:39:47.618Z,20.3
2016-08-08T01:39:57.612Z,20.5
2016-08-08T01:40:07.608Z,20.4
2016-08-08T01:40:17.602Z,20.3
2016-08-08T01:40:27.598Z,20.4
2016-08-08T01:40:37.596Z,20.4
2016-08-08T01:40:47.589Z,20.3
2016-08-08T01:40:57.583Z,20.3
2016-08-08T01:41:07.581Z,20.3
2016-08-08T01:41:17.575Z,20.4
2016-08-08T01:41:27.574Z,20.3
2016-08-08T01:41:37.568Z,20.4
2016-08-08T01:41:47.561Z,20.4
2016-08-08T01:41:57.558Z,20.4
2016-08-08T01:42:07.554Z,20.4
2016-08-08T01:42:17.547Z,20.4
2016-08-08T01:42:27.544Z,20.4
2016-08-08T01:42:37.540Z,20.4
2016-08-08T01:42:47.535Z,20.3
2016-08-08T01:42:57.530Z,20.4
2016-08-08T01:43:07.526Z,20.4
2016-08-08T01:43:17.521Z,20.4
2016-08-08T01:43:27.517Z,20.3
2016-08-08T01:43:37.513Z,20.3
2016-08-08T01:43:47.508Z,20.3
2016-08-08T01:43:57.503Z,20.4
2016-08-08T01:44:07.499Z,20.4
2016-08-08T01:44:17.495Z,20.3
2016-08-08T01:44:27.490Z,20.3
2016-08-08T01:44:37.485Z,20.3
2016-08-08T01:44:47.480Z,20.3
2016-08-08T01:44:57.476Z,20.3
2016-08-08T01:45:07.473Z,20.3
2016-08-08T01:45:17.467Z,20.4
2016-08-08T01:45:27.462Z,20.2
2016-08-08T01:45:37.459Z,20.3
2016-08-08T01:45:47.454Z,20.3
2016-08-08T01:45:57.449Z,20.3
2016-08-08T01:46:07.446Z,20.3
2016-08-08T01:46:17.441Z,20.3
2016-08-08T01:46:27.436Z,20.3
2016-08-08T01:46:37.431Z,20.3
2016-08-08T01:46:47.427Z,20.3
2016-08-08T01:46:57.424Z,20.2
2016-08-08T01:47:07.418Z,20.3
2016-08-08T01:47:17.413Z,20.3
2016-08-08T01:47:27.407Z,20.3
2016-08-08T01:47:37.404Z,20.3
2016-08-08T01:47:47.400Z,20.3
2016-08-08T01:47:57.394Z,20.3
2016-08-08T01:48:07.389Z,20.3
2016-08-08T01:48:17.385Z,20.4
2016-08-08T01:48:27.388Z,20.3
2016-08-08T01:48:37.378Z,20.4
2016-08-08T01:48:47.372Z,20.3
2016-08-08T01:48:57.368Z,20.2
2016-08-08T01:49:07.364Z,20.3
2016-08-08T01:49:17.366Z,20.3
2016-08-08T01:49:27.355Z,20.3
2016-08-08T01:49:37.350Z,20.3
2016-08-08T01:49:47.347Z,20.3
2016-08-08T01:49:57.342Z,20.3
2016-08-08T01:50:07.337Z,20.3
2016-08-08T01:50:17.333Z,20.3
2016-08-08T01:50:27.329Z,20.3
2016-08-08T01:50:37.324Z,20.3
2016-08-08T01:50:47.320Z,20.3
2016-08-08T01:50:57.314Z,20.2
2016-08-08T01:51:07.310Z,20.3
2016-08-08T01:51:17.307Z,20.3
2016-08-08T01:51:27.301Z,20.3
2016-08-08T01:51:37.297Z,20.3
2016-08-08T01:51:47.294Z,20.3
2016-08-08T01:51:57.285Z,20.3
2016-08-08T01:52:07.283Z,20.3
2016-08-08T01:52:17.277Z,20.3
2016-08-08T01:52:27.274Z,20.3
2016-08-08T01:52:37.269Z,20.2
2016-08-08T01:52:47.265Z,20.3
2016-08-08T01:52:57.261Z,20.3
2016-08-08T01:53:07.256Z,20.2
2016-08-08T01:53:17.252Z,20.3
2016-08-08T01:53:27.246Z,20.2
2016-08-08T01:53:37.242Z,20.3
2016-08-08T01:53:47.238Z,20.3
2016-08-08T01:53:57.234Z,20.3
2016-08-08T01:54:07.228Z,20.3
2016-08-08T01:54:17.225Z,20.3
2016-08-08T01:54:27.221Z,20.3
2016-08-08T01:54:37.215Z,20.2
2016-08-08T01:54:47.211Z,20.3
2016-08-08T01:54:57.205Z,20.2
2016-08-08T01:55:07.202Z,20.3
2016-08-08T01:55:17.198Z,20.2
2016-08-08T01:55:27.193Z,20.3
2016-08-08T01:55:37.189Z,20.2
2016-08-08T01:55:47.185Z,20.2
2016-08-08T01:55:57.180Z,20.2
2016-08-08T01:56:07.175Z,20.3
2016-08-08T01:56:17.172Z,20.2
2016-08-08T01:56:27.167Z,20.2
2016-08-08T01:56:37.162Z,20.3
2016-08-08T01:56:47.157Z,20.2
2016-08-08T01:56:57.153Z,20.2
2016-08-08T01:57:07.149Z,20.2
2016-08-08T01:57:17.143Z,20.3
2016-08-08T01:57:27.140Z,20.3
2016-08-08T01:57:37.134Z,20.2
2016-08-08T01:57:47.129Z,20.2
2016-08-08T01:57:57.125Z,20.3
2016-08-08T01:58:07.119Z,20.3
2016-08-08T01:58:17.115Z,20.2
2016-08-08T01:58:27.112Z,20.2
2016-08-08T01:58:37.107Z,20.2
2016-08-08T01:58:47.102Z,20.2
2016-08-08T01:58:57.098Z,20.2
2016-08-08T01:59:07.093Z,20.2
2016-08-08T01:59:17.089Z,20.2
2016-08-08T01:59:27.084Z,20.2
2016-08-08T01:59:37.080Z,20.2
2016-08-08T01:59:47.074Z,20.2
2016-08-08T01:59:57.072Z,20.2
2016-08-08T02:00:07.067Z,20.2
2016-08-08T02:00:17.061Z,20.3
2016-08-08T02:00:27.058Z,20.3
2016-08-08T02:00:37.053Z,20.2
2016-08-08T02:00:47.048Z,20.2
2016-08-08T02:00:57.044Z,20.2
2016-08-08T02:01:07.041Z,20.2
2016-08-08T02:01:17.036Z,20.2
2016-08-08T02:01:27.031Z,20.2
2016-08-08T02:01:37.026Z,20.2
2016-08-08T02:01:47.023Z,20.2
2016-08-08T02:01:57.018Z,20.2
2016-08-08T02:02:07.012Z,20.2
2016-08-08T02:02:17.008Z,20.1
2016-08-08T02:02:27.005Z,20.2
2016-08-08T02:02:36.999Z,20.1
2016-08-08T02:02:46.995Z,20.2
2016-08-08T02:02:56.990Z,20.2
2016-08-08T02:03:06.985Z,20.2
2016-08-08T02:03:16.981Z,20.1
2016-08-08T02:03:26.976Z,20.2
2016-08-08T02:03:36.972Z,20.2
2016-08-08T02:03:46.967Z,20.2
2016-08-08T02:03:56.962Z,20.2
2016-08-08T02:04:06.960Z,20.2
2016-08-08T02:04:16.953Z,20.1
2016-08-08T02:04:26.950Z,20.2
2016-08-08T02:04:36.946Z,20.2
2016-08-08T02:04:46.940Z,20.2
2016-08-08T02:04:56.936Z,20.2
2016-08-08T02:05:06.933Z,20.2
2016-08-08T02:05:16.926Z,20.2
2016-08-08T02:05:26.922Z,20.1
2016-08-08T02:05:36.918Z,20.2
2016-08-08T02:05:46.913Z,20.2
2016-08-08T02:05:56.909Z,20.2
2016-08-08T02:06:06.905Z,20.2
2016-08-08T02:06:16.901Z,20.2
2016-08-08T02:06:26.896Z,20.1
2016-08-08T02:06:36.891Z,20.2
2016-08-08T02:06:46.887Z,20.2
2016-08-08T02:06:56.881Z,20.2
2016-08-08T02:07:06.882Z,20.2
2016-08-08T02:07:16.873Z,20.1
2016-08-08T02:07:26.870Z,20.1
2016-08-08T02:07:36.864Z,20.2
2016-08-08T02:07:46.860Z,20.1
2016-08-08T02:07:56.855Z,20.2
2016-08-08T02:08:06.852Z,20.2
2016-08-08T02:08:16.846Z,20.2
2016-08-08T02:08:26.841Z,20.1
2016-08-08T02:08:36.838Z,20.2
2016-08-08T02:08:46.836Z,20
2016-08-08T02:08:56.829Z,20.1
2016-08-08T02:09:06.824Z,20.1
2016-08-08T02:09:16.824Z,20.1
2016-08-08T02:09:26.814Z,20.1
2016-08-08T02:09:36.810Z,20.1
2016-08-08T02:09:46.806Z,20.1
2016-08-08T02:09:56.801Z,20.2
2016-08-08T02:10:06.796Z,20.1
2016-08-08T02:10:16.792Z,20.1
2016-08-08T02:10:26.788Z,20.1
2016-08-08T02:10:36.783Z,20.2
2016-08-08T02:10:46.779Z,20.1
2016-08-08T02:10:56.774Z,20.1
2016-08-08T02:11:06.770Z,20.1
2016-08-08T02:11:16.765Z,20.1
2016-08-08T02:11:26.760Z,20
2016-08-08T02:11:36.756Z,20.1
2016-08-08T02:11:46.753Z,20.1
2016-08-08T02:11:56.747Z,20.2
2016-08-08T02:12:06.744Z,20.1
2016-08-08T02:12:16.739Z,20.1
2016-08-08T02:12:26.733Z,20.1
2016-08-08T02:12:36.729Z,20
2016-08-08T02:12:46.724Z,20.1
2016-08-08T02:12:56.720Z,20.1